Terminal Aerodrome Forecast
Issued by NWS Topeka, KS

Home | Current Version | Previous Version | Graphics & Text | Print | Product List | Glossary On
Versions: 1 2 3 4 5 6 7 8 9 10 11 12 13
000
FTUS43 KTOP 041120
TAFTOP
TAF
KTOP 041120Z 0412/0512 22004KT P6SM SKC
     FM041600 25011G19KT P6SM FEW250
     FM050000 28003KT P6SM SKC=

USA.gov is the U.S. government's official web portal to all federal, state and local government web resources and services.